sensor_id;sensor_type;location;lat;lon;timestamp;P1;durP1;ratioP1;P2;durP2;ratioP2
21038;SDS011;10678;51.002;4.786;2022-12-10T00:01:40;44.50;;;19.77;;
21038;SDS011;10678;51.002;4.786;2022-12-10T00:04:07;44.13;;;16.93;;
21038;SDS011;10678;51.002;4.786;2022-12-10T00:06:34;35.07;;;16.63;;
21038;SDS011;10678;51.002;4.786;2022-12-10T00:09:01;40.10;;;18.07;;
21038;SDS011;10678;51.002;4.786;2022-12-10T00:11:28;39.13;;;18.47;;
21038;SDS011;10678;51.002;4.786;2022-12-10T00:13:54;43.73;;;19.50;;
21038;SDS011;10678;51.002;4.786;2022-12-10T00:16:20;37.57;;;17.20;;
21038;SDS011;10678;51.002;4.786;2022-12-10T00:18:48;39.90;;;18.37;;
21038;SDS011;10678;51.002;4.786;2022-12-10T00:21:16;37.23;;;17.33;;
21038;SDS011;10678;51.002;4.786;2022-12-10T00:23:43;36.80;;;17.57;;
21038;SDS011;10678;51.002;4.786;2022-12-10T00:26:14;38.97;;;17.53;;
21038;SDS011;10678;51.002;4.786;2022-12-10T00:28:42;38.10;;;17.50;;
21038;SDS011;10678;51.002;4.786;2022-12-10T00:31:09;37.37;;;18.47;;
21038;SDS011;10678;51.002;4.786;2022-12-10T00:33:37;42.47;;;18.30;;
21038;SDS011;10678;51.002;4.786;2022-12-10T00:36:07;41.07;;;19.43;;
21038;SDS011;10678;51.002;4.786;2022-12-10T00:38:38;40.57;;;17.47;;
21038;SDS011;10678;51.002;4.786;2022-12-10T00:41:04;40.50;;;19.10;;
21038;SDS011;10678;51.002;4.786;2022-12-10T00:43:30;39.30;;;17.57;;
21038;SDS011;10678;51.002;4.786;2022-12-10T00:45:55;39.13;;;17.90;;
21038;SDS011;10678;51.002;4.786;2022-12-10T00:48:22;36.93;;;17.63;;
21038;SDS011;10678;51.002;4.786;2022-12-10T00:51:01;37.73;;;17.53;;
21038;SDS011;10678;51.002;4.786;2022-12-10T00:53:32;37.10;;;17.07;;
21038;SDS011;10678;51.002;4.786;2022-12-10T00:55:58;40.47;;;18.63;;
21038;SDS011;10678;51.002;4.786;2022-12-10T00:58:28;32.67;;;15.90;;
21038;SDS011;10678;51.002;4.786;2022-12-10T01:01:06;33.77;;;16.43;;
21038;SDS011;10678;51.002;4.786;2022-12-10T01:03:32;35.83;;;16.40;;
21038;SDS011;10678;51.002;4.786;2022-12-10T01:05:57;32.77;;;15.87;;
21038;SDS011;10678;51.002;4.786;2022-12-10T01:08:31;38.77;;;17.40;;
21038;SDS011;10678;51.002;4.786;2022-12-10T01:10:57;38.67;;;16.87;;
21038;SDS011;10678;51.002;4.786;2022-12-10T01:13:22;40.87;;;17.60;;
21038;SDS011;10678;51.002;4.786;2022-12-10T01:15:48;35.97;;;16.77;;
21038;SDS011;10678;51.002;4.786;2022-12-10T01:18:13;35.43;;;16.77;;
21038;SDS011;10678;51.002;4.786;2022-12-10T01:20:39;36.07;;;16.50;;
21038;SDS011;10678;51.002;4.786;2022-12-10T01:23:04;39.53;;;18.03;;
21038;SDS011;10678;51.002;4.786;2022-12-10T01:25:30;39.00;;;15.80;;
21038;SDS011;10678;51.002;4.786;2022-12-10T01:27:56;43.33;;;18.00;;
21038;SDS011;10678;51.002;4.786;2022-12-10T01:30:21;37.47;;;17.27;;
21038;SDS011;10678;51.002;4.786;2022-12-10T01:32:47;35.23;;;17.17;;
21038;SDS011;10678;51.002;4.786;2022-12-10T01:35:12;42.60;;;17.77;;
21038;SDS011;10678;51.002;4.786;2022-12-10T01:37:39;34.87;;;16.50;;
21038;SDS011;10678;51.002;4.786;2022-12-10T01:40:04;39.90;;;19.30;;
21038;SDS011;10678;51.002;4.786;2022-12-10T01:42:30;40.30;;;18.30;;
21038;SDS011;10678;51.002;4.786;2022-12-10T01:44:57;39.27;;;17.67;;
21038;SDS011;10678;51.002;4.786;2022-12-10T01:47:25;43.83;;;18.90;;
21038;SDS011;10678;51.002;4.786;2022-12-10T01:49:51;40.83;;;17.57;;
21038;SDS011;10678;51.002;4.786;2022-12-10T01:52:16;40.57;;;18.53;;
21038;SDS011;10678;51.002;4.786;2022-12-10T01:54:44;41.27;;;18.27;;
21038;SDS011;10678;51.002;4.786;2022-12-10T01:57:12;37.10;;;18.07;;
21038;SDS011;10678;51.002;4.786;2022-12-10T01:59:45;40.83;;;16.97;;
21038;SDS011;10678;51.002;4.786;2022-12-10T02:10:58;36.53;;;15.77;;
21038;SDS011;10678;51.002;4.786;2022-12-10T02:16:40;35.10;;;16.43;;
21038;SDS011;10678;51.002;4.786;2022-12-10T02:19:18;34.63;;;16.17;;
21038;SDS011;10678;51.002;4.786;2022-12-10T02:22:00;39.30;;;15.70;;
21038;SDS011;10678;51.002;4.786;2022-12-10T02:24:28;43.97;;;17.17;;
21038;SDS011;10678;51.002;4.786;2022-12-10T02:27:12;39.83;;;17.07;;
21038;SDS011;10678;51.002;4.786;2022-12-10T02:29:44;47.93;;;17.97;;
21038;SDS011;10678;51.002;4.786;2022-12-10T02:32:18;39.63;;;17.70;;
21038;SDS011;10678;51.002;4.786;2022-12-10T02:34:48;45.73;;;17.43;;
21038;SDS011;10678;51.002;4.786;2022-12-10T02:37:30;44.27;;;18.20;;
21038;SDS011;10678;51.002;4.786;2022-12-10T02:40:00;37.90;;;15.93;;
21038;SDS011;10678;51.002;4.786;2022-12-10T02:42:30;39.90;;;16.77;;
21038;SDS011;10678;51.002;4.786;2022-12-10T02:45:02;38.80;;;17.13;;
21038;SDS011;10678;51.002;4.786;2022-12-10T02:47:29;38.53;;;16.17;;
21038;SDS011;10678;51.002;4.786;2022-12-10T02:49:56;38.90;;;16.37;;
21038;SDS011;10678;51.002;4.786;2022-12-10T02:52:23;43.87;;;17.00;;
21038;SDS011;10678;51.002;4.786;2022-12-10T02:54:50;40.00;;;17.47;;
21038;SDS011;10678;51.002;4.786;2022-12-10T02:57:30;45.23;;;18.83;;
21038;SDS011;10678;51.002;4.786;2022-12-10T03:05:52;39.80;;;16.30;;
21038;SDS011;10678;51.002;4.786;2022-12-10T03:08:32;37.97;;;17.20;;
21038;SDS011;10678;51.002;4.786;2022-12-10T03:11:05;38.60;;;17.13;;
21038;SDS011;10678;51.002;4.786;2022-12-10T03:13:43;36.63;;;16.43;;
21038;SDS011;10678;51.002;4.786;2022-12-10T03:16:16;40.10;;;17.43;;
21038;SDS011;10678;51.002;4.786;2022-12-10T03:18:44;36.87;;;16.10;;
21038;SDS011;10678;51.002;4.786;2022-12-10T03:21:12;33.43;;;15.97;;
21038;SDS011;10678;51.002;4.786;2022-12-10T03:23:40;37.00;;;16.40;;
21038;SDS011;10678;51.002;4.786;2022-12-10T03:26:10;37.57;;;15.17;;
21038;SDS011;10678;51.002;4.786;2022-12-10T03:28:45;38.93;;;15.63;;
21038;SDS011;10678;51.002;4.786;2022-12-10T03:31:15;34.27;;;15.83;;
21038;SDS011;10678;51.002;4.786;2022-12-10T03:33:42;38.07;;;15.93;;
21038;SDS011;10678;51.002;4.786;2022-12-10T03:36:09;31.03;;;14.80;;
21038;SDS011;10678;51.002;4.786;2022-12-10T03:38:35;35.77;;;15.63;;
21038;SDS011;10678;51.002;4.786;2022-12-10T03:41:02;34.57;;;16.50;;
21038;SDS011;10678;51.002;4.786;2022-12-10T03:43:28;33.27;;;15.23;;
21038;SDS011;10678;51.002;4.786;2022-12-10T03:45:54;31.83;;;14.60;;
21038;SDS011;10678;51.002;4.786;2022-12-10T03:48:19;38.43;;;16.27;;
21038;SDS011;10678;51.002;4.786;2022-12-10T03:50:45;36.40;;;15.70;;
21038;SDS011;10678;51.002;4.786;2022-12-10T03:53:10;33.53;;;14.97;;
21038;SDS011;10678;51.002;4.786;2022-12-10T03:55:36;37.13;;;15.30;;
21038;SDS011;10678;51.002;4.786;2022-12-10T03:58:03;33.87;;;15.00;;
21038;SDS011;10678;51.002;4.786;2022-12-10T04:00:28;38.17;;;15.87;;
21038;SDS011;10678;51.002;4.786;2022-12-10T04:02:54;38.53;;;15.73;;
21038;SDS011;10678;51.002;4.786;2022-12-10T04:05:19;35.77;;;15.43;;
21038;SDS011;10678;51.002;4.786;2022-12-10T04:07:45;36.80;;;15.00;;
21038;SDS011;10678;51.002;4.786;2022-12-10T04:10:11;34.60;;;14.57;;
21038;SDS011;10678;51.002;4.786;2022-12-10T04:12:37;34.60;;;14.70;;
21038;SDS011;10678;51.002;4.786;2022-12-10T04:15:03;36.17;;;15.20;;
21038;SDS011;10678;51.002;4.786;2022-12-10T04:17:47;34.97;;;15.23;;
21038;SDS011;10678;51.002;4.786;2022-12-10T04:20:13;39.77;;;15.40;;
21038;SDS011;10678;51.002;4.786;2022-12-10T04:22:57;37.37;;;15.20;;
21038;SDS011;10678;51.002;4.786;2022-12-10T04:25:41;42.93;;;16.87;;
21038;SDS011;10678;51.002;4.786;2022-12-10T04:28:25;34.07;;;14.53;;
21038;SDS011;10678;51.002;4.786;2022-12-10T04:30:51;39.60;;;15.67;;
21038;SDS011;10678;51.002;4.786;2022-12-10T04:33:16;34.00;;;15.63;;
21038;SDS011;10678;51.002;4.786;2022-12-10T04:35:42;36.90;;;15.27;;
21038;SDS011;10678;51.002;4.786;2022-12-10T04:38:08;36.00;;;15.20;;
21038;SDS011;10678;51.002;4.786;2022-12-10T04:40:33;37.83;;;16.27;;
21038;SDS011;10678;51.002;4.786;2022-12-10T04:42:59;38.20;;;16.50;;
21038;SDS011;10678;51.002;4.786;2022-12-10T04:45:24;42.53;;;17.07;;
21038;SDS011;10678;51.002;4.786;2022-12-10T04:47:50;44.73;;;16.93;;
21038;SDS011;10678;51.002;4.786;2022-12-10T04:50:15;45.70;;;17.97;;
21038;SDS011;10678;51.002;4.786;2022-12-10T04:52:41;44.00;;;18.13;;
21038;SDS011;10678;51.002;4.786;2022-12-10T04:55:07;43.77;;;18.30;;
21038;SDS011;10678;51.002;4.786;2022-12-10T04:57:33;44.77;;;18.37;;
21038;SDS011;10678;51.002;4.786;2022-12-10T04:59:58;46.53;;;17.23;;
21038;SDS011;10678;51.002;4.786;2022-12-10T05:02:24;43.27;;;17.73;;
21038;SDS011;10678;51.002;4.786;2022-12-10T05:04:49;42.90;;;17.87;;
21038;SDS011;10678;51.002;4.786;2022-12-10T05:07:15;45.53;;;17.30;;
21038;SDS011;10678;51.002;4.786;2022-12-10T05:09:40;39.43;;;15.53;;
21038;SDS011;10678;51.002;4.786;2022-12-10T05:12:06;47.13;;;17.87;;
21038;SDS011;10678;51.002;4.786;2022-12-10T05:14:32;37.27;;;15.93;;
21038;SDS011;10678;51.002;4.786;2022-12-10T05:16:57;38.17;;;15.97;;
21038;SDS011;10678;51.002;4.786;2022-12-10T05:19:23;38.13;;;16.23;;
21038;SDS011;10678;51.002;4.786;2022-12-10T05:21:51;37.90;;;16.53;;
21038;SDS011;10678;51.002;4.786;2022-12-10T05:24:35;36.80;;;16.07;;
21038;SDS011;10678;51.002;4.786;2022-12-10T05:27:01;44.50;;;16.80;;
21038;SDS011;10678;51.002;4.786;2022-12-10T05:29:27;39.00;;;15.40;;
21038;SDS011;10678;51.002;4.786;2022-12-10T05:31:53;37.33;;;15.47;;
21038;SDS011;10678;51.002;4.786;2022-12-10T05:34:18;40.47;;;16.57;;
21038;SDS011;10678;51.002;4.786;2022-12-10T05:36:44;42.40;;;16.50;;
21038;SDS011;10678;51.002;4.786;2022-12-10T05:39:10;40.53;;;15.27;;
21038;SDS011;10678;51.002;4.786;2022-12-10T05:41:36;50.50;;;17.60;;
21038;SDS011;10678;51.002;4.786;2022-12-10T05:44:03;41.13;;;16.83;;
21038;SDS011;10678;51.002;4.786;2022-12-10T05:46:30;42.40;;;16.63;;
21038;SDS011;10678;51.002;4.786;2022-12-10T05:48:57;42.57;;;17.47;;
21038;SDS011;10678;51.002;4.786;2022-12-10T05:51:26;41.93;;;15.30;;
21038;SDS011;10678;51.002;4.786;2022-12-10T05:53:53;40.37;;;17.10;;
21038;SDS011;10678;51.002;4.786;2022-12-10T05:56:20;43.37;;;18.13;;
21038;SDS011;10678;51.002;4.786;2022-12-10T05:58:48;45.00;;;17.17;;
21038;SDS011;10678;51.002;4.786;2022-12-10T06:01:18;45.70;;;17.87;;
21038;SDS011;10678;51.002;4.786;2022-12-10T06:03:46;47.80;;;19.20;;
21038;SDS011;10678;51.002;4.786;2022-12-10T06:06:11;49.47;;;18.87;;
21038;SDS011;10678;51.002;4.786;2022-12-10T06:08:38;48.07;;;18.90;;
21038;SDS011;10678;51.002;4.786;2022-12-10T06:11:05;46.93;;;19.43;;
21038;SDS011;10678;51.002;4.786;2022-12-10T06:13:32;47.33;;;17.63;;
21038;SDS011;10678;51.002;4.786;2022-12-10T06:15:57;50.23;;;17.20;;
21038;SDS011;10678;51.002;4.786;2022-12-10T06:18:23;46.43;;;17.93;;
21038;SDS011;10678;51.002;4.786;2022-12-10T06:20:49;51.73;;;18.30;;
21038;SDS011;10678;51.002;4.786;2022-12-10T06:23:15;50.27;;;18.03;;
21038;SDS011;10678;51.002;4.786;2022-12-10T06:25:41;44.03;;;16.57;;
21038;SDS011;10678;51.002;4.786;2022-12-10T06:28:07;46.73;;;17.37;;
21038;SDS011;10678;51.002;4.786;2022-12-10T06:30:33;41.70;;;16.33;;
21038;SDS011;10678;51.002;4.786;2022-12-10T06:32:59;44.93;;;17.77;;
21038;SDS011;10678;51.002;4.786;2022-12-10T06:35:25;50.70;;;17.77;;
21038;SDS011;10678;51.002;4.786;2022-12-10T06:37:51;44.87;;;18.20;;
21038;SDS011;10678;51.002;4.786;2022-12-10T06:40:17;49.00;;;18.43;;
21038;SDS011;10678;51.002;4.786;2022-12-10T06:42:43;54.37;;;18.57;;
21038;SDS011;10678;51.002;4.786;2022-12-10T06:45:09;56.20;;;18.83;;
21038;SDS011;10678;51.002;4.786;2022-12-10T06:47:35;49.90;;;18.03;;
21038;SDS011;10678;51.002;4.786;2022-12-10T06:50:01;53.03;;;20.07;;
21038;SDS011;10678;51.002;4.786;2022-12-10T06:52:26;46.80;;;19.00;;
21038;SDS011;10678;51.002;4.786;2022-12-10T06:54:52;51.93;;;18.03;;
21038;SDS011;10678;51.002;4.786;2022-12-10T06:57:20;54.63;;;19.77;;
21038;SDS011;10678;51.002;4.786;2022-12-10T06:59:46;57.33;;;19.73;;
21038;SDS011;10678;51.002;4.786;2022-12-10T07:02:11;51.40;;;19.87;;
21038;SDS011;10678;51.002;4.786;2022-12-10T07:04:37;49.77;;;19.07;;
21038;SDS011;10678;51.002;4.786;2022-12-10T07:07:03;50.67;;;18.23;;
21038;SDS011;10678;51.002;4.786;2022-12-10T07:09:30;52.97;;;19.87;;
21038;SDS011;10678;51.002;4.786;2022-12-10T07:11:57;59.00;;;18.07;;
21038;SDS011;10678;51.002;4.786;2022-12-10T07:14:22;54.37;;;19.27;;
21038;SDS011;10678;51.002;4.786;2022-12-10T07:16:48;52.33;;;18.97;;
21038;SDS011;10678;51.002;4.786;2022-12-10T07:19:13;53.23;;;17.40;;
21038;SDS011;10678;51.002;4.786;2022-12-10T07:21:40;56.07;;;18.33;;
21038;SDS011;10678;51.002;4.786;2022-12-10T07:24:07;60.30;;;18.90;;
21038;SDS011;10678;51.002;4.786;2022-12-10T07:26:38;62.10;;;20.47;;
21038;SDS011;10678;51.002;4.786;2022-12-10T07:29:05;49.90;;;19.63;;
21038;SDS011;10678;51.002;4.786;2022-12-10T07:31:32;62.87;;;21.57;;
21038;SDS011;10678;51.002;4.786;2022-12-10T07:34:00;59.50;;;20.53;;
21038;SDS011;10678;51.002;4.786;2022-12-10T07:36:26;56.50;;;20.17;;
21038;SDS011;10678;51.002;4.786;2022-12-10T07:38:52;58.53;;;20.87;;
21038;SDS011;10678;51.002;4.786;2022-12-10T07:41:18;56.70;;;21.27;;
21038;SDS011;10678;51.002;4.786;2022-12-10T07:43:45;52.07;;;20.33;;
21038;SDS011;10678;51.002;4.786;2022-12-10T07:46:16;60.63;;;19.57;;
21038;SDS011;10678;51.002;4.786;2022-12-10T07:48:46;51.07;;;19.33;;
21038;SDS011;10678;51.002;4.786;2022-12-10T07:51:13;52.33;;;19.07;;
21038;SDS011;10678;51.002;4.786;2022-12-10T07:53:39;46.17;;;18.10;;
21038;SDS011;10678;51.002;4.786;2022-12-10T07:56:05;57.80;;;18.17;;
21038;SDS011;10678;51.002;4.786;2022-12-10T07:58:31;47.13;;;18.17;;
21038;SDS011;10678;51.002;4.786;2022-12-10T08:00:57;46.43;;;18.17;;
21038;SDS011;10678;51.002;4.786;2022-12-10T08:03:23;49.00;;;18.53;;
21038;SDS011;10678;51.002;4.786;2022-12-10T08:05:49;53.40;;;17.70;;
21038;SDS011;10678;51.002;4.786;2022-12-10T08:08:29;49.67;;;17.80;;
21038;SDS011;10678;51.002;4.786;2022-12-10T08:10:54;53.57;;;19.07;;
21038;SDS011;10678;51.002;4.786;2022-12-10T08:13:20;56.10;;;19.77;;
21038;SDS011;10678;51.002;4.786;2022-12-10T08:15:45;50.73;;;18.30;;
21038;SDS011;10678;51.002;4.786;2022-12-10T08:18:11;61.07;;;19.80;;
21038;SDS011;10678;51.002;4.786;2022-12-10T08:20:37;60.53;;;20.80;;
21038;SDS011;10678;51.002;4.786;2022-12-10T08:23:02;58.07;;;20.97;;
21038;SDS011;10678;51.002;4.786;2022-12-10T08:25:28;62.70;;;19.97;;
21038;SDS011;10678;51.002;4.786;2022-12-10T08:27:53;64.83;;;21.43;;
21038;SDS011;10678;51.002;4.786;2022-12-10T08:30:19;64.77;;;20.60;;
21038;SDS011;10678;51.002;4.786;2022-12-10T08:32:44;58.37;;;20.53;;
21038;SDS011;10678;51.002;4.786;2022-12-10T08:35:10;57.97;;;20.43;;
21038;SDS011;10678;51.002;4.786;2022-12-10T08:37:36;57.10;;;20.20;;
21038;SDS011;10678;51.002;4.786;2022-12-10T08:40:05;56.43;;;20.17;;
21038;SDS011;10678;51.002;4.786;2022-12-10T08:42:31;58.10;;;20.47;;
21038;SDS011;10678;51.002;4.786;2022-12-10T08:44:57;58.93;;;19.30;;
21038;SDS011;10678;51.002;4.786;2022-12-10T08:47:23;56.53;;;20.63;;
21038;SDS011;10678;51.002;4.786;2022-12-10T08:49:48;62.10;;;21.77;;
21038;SDS011;10678;51.002;4.786;2022-12-10T08:52:14;64.23;;;22.30;;
21038;SDS011;10678;51.002;4.786;2022-12-10T08:54:39;58.10;;;20.27;;
21038;SDS011;10678;51.002;4.786;2022-12-10T08:57:05;66.33;;;21.70;;
21038;SDS011;10678;51.002;4.786;2022-12-10T08:59:30;70.10;;;22.20;;
21038;SDS011;10678;51.002;4.786;2022-12-10T09:01:56;66.63;;;21.77;;
21038;SDS011;10678;51.002;4.786;2022-12-10T09:04:21;55.87;;;19.20;;
21038;SDS011;10678;51.002;4.786;2022-12-10T09:06:47;55.57;;;19.27;;
21038;SDS011;10678;51.002;4.786;2022-12-10T09:09:13;54.07;;;19.00;;
21038;SDS011;10678;51.002;4.786;2022-12-10T09:11:38;50.87;;;18.93;;
21038;SDS011;10678;51.002;4.786;2022-12-10T09:14:04;59.00;;;20.87;;
21038;SDS011;10678;51.002;4.786;2022-12-10T09:16:31;53.93;;;20.63;;
21038;SDS011;10678;51.002;4.786;2022-12-10T09:18:58;59.70;;;20.03;;
21038;SDS011;10678;51.002;4.786;2022-12-10T09:21:25;65.60;;;20.93;;
21038;SDS011;10678;51.002;4.786;2022-12-10T09:23:50;59.23;;;21.97;;
21038;SDS011;10678;51.002;4.786;2022-12-10T09:26:16;57.67;;;19.03;;
21038;SDS011;10678;51.002;4.786;2022-12-10T09:28:42;101.93;;;20.70;;
21038;SDS011;10678;51.002;4.786;2022-12-10T09:31:09;62.87;;;20.10;;
21038;SDS011;10678;51.002;4.786;2022-12-10T09:33:35;56.80;;;20.07;;
21038;SDS011;10678;51.002;4.786;2022-12-10T09:36:07;56.30;;;19.00;;
21038;SDS011;10678;51.002;4.786;2022-12-10T09:38:35;61.53;;;20.87;;
21038;SDS011;10678;51.002;4.786;2022-12-10T09:41:07;62.20;;;20.47;;
21038;SDS011;10678;51.002;4.786;2022-12-10T09:49:04;59.37;;;19.93;;
21038;SDS011;10678;51.002;4.786;2022-12-10T09:51:45;59.20;;;20.10;;
21038;SDS011;10678;51.002;4.786;2022-12-10T09:54:18;63.20;;;20.97;;
21038;SDS011;10678;51.002;4.786;2022-12-10T09:56:50;45.43;;;16.37;;
21038;SDS011;10678;51.002;4.786;2022-12-10T09:59:19;51.77;;;18.17;;
21038;SDS011;10678;51.002;4.786;2022-12-10T10:01:59;50.63;;;18.43;;
21038;SDS011;10678;51.002;4.786;2022-12-10T10:04:45;52.70;;;17.37;;
21038;SDS011;10678;51.002;4.786;2022-12-10T10:07:17;45.13;;;15.30;;
21038;SDS011;10678;51.002;4.786;2022-12-10T10:09:57;54.17;;;17.60;;
21038;SDS011;10678;51.002;4.786;2022-12-10T10:12:27;46.03;;;16.23;;
21038;SDS011;10678;51.002;4.786;2022-12-10T10:14:54;49.03;;;17.47;;
21038;SDS011;10678;51.002;4.786;2022-12-10T10:17:21;43.00;;;16.17;;
21038;SDS011;10678;51.002;4.786;2022-12-10T10:19:53;43.70;;;15.73;;
21038;SDS011;10678;51.002;4.786;2022-12-10T10:22:19;45.80;;;17.23;;
21038;SDS011;10678;51.002;4.786;2022-12-10T10:24:45;48.10;;;16.67;;
21038;SDS011;10678;51.002;4.786;2022-12-10T10:27:13;40.17;;;15.67;;
21038;SDS011;10678;51.002;4.786;2022-12-10T10:29:43;42.97;;;15.43;;
21038;SDS011;10678;51.002;4.786;2022-12-10T10:32:14;46.43;;;16.00;;
21038;SDS011;10678;51.002;4.786;2022-12-10T10:34:43;39.90;;;13.93;;
21038;SDS011;10678;51.002;4.786;2022-12-10T10:37:19;36.73;;;14.67;;
21038;SDS011;10678;51.002;4.786;2022-12-10T10:39:50;43.77;;;15.07;;
21038;SDS011;10678;51.002;4.786;2022-12-10T10:42:23;43.03;;;16.00;;
21038;SDS011;10678;51.002;4.786;2022-12-10T10:44:59;42.37;;;16.90;;
21038;SDS011;10678;51.002;4.786;2022-12-10T10:47:32;39.53;;;14.63;;
21038;SDS011;10678;51.002;4.786;2022-12-10T10:49:59;39.83;;;15.40;;
21038;SDS011;10678;51.002;4.786;2022-12-10T10:52:30;38.93;;;15.13;;
21038;SDS011;10678;51.002;4.786;2022-12-10T10:55:01;39.73;;;14.93;;
21038;SDS011;10678;51.002;4.786;2022-12-10T10:57:28;40.73;;;15.47;;
21038;SDS011;10678;51.002;4.786;2022-12-10T11:02:35;43.50;;;16.63;;
21038;SDS011;10678;51.002;4.786;2022-12-10T11:05:15;41.30;;;16.30;;
21038;SDS011;10678;51.002;4.786;2022-12-10T11:08:06;41.33;;;15.20;;
21038;SDS011;10678;51.002;4.786;2022-12-10T11:10:47;42.50;;;15.70;;
21038;SDS011;10678;51.002;4.786;2022-12-10T11:13:24;39.10;;;14.80;;
21038;SDS011;10678;51.002;4.786;2022-12-10T11:18:36;39.23;;;14.80;;
21038;SDS011;10678;51.002;4.786;2022-12-10T11:21:15;42.90;;;15.70;;
21038;SDS011;10678;51.002;4.786;2022-12-10T11:23:44;44.97;;;15.83;;
21038;SDS011;10678;51.002;4.786;2022-12-10T11:39:50;39.03;;;15.27;;
21038;SDS011;10678;51.002;4.786;2022-12-10T11:51:11;42.57;;;17.23;;
21038;SDS011;10678;51.002;4.786;2022-12-10T11:54:00;37.20;;;15.93;;
21038;SDS011;10678;51.002;4.786;2022-12-10T11:56:48;38.27;;;16.43;;
21038;SDS011;10678;51.002;4.786;2022-12-10T12:02:15;37.53;;;15.27;;
21038;SDS011;10678;51.002;4.786;2022-12-10T12:13:23;36.17;;;15.53;;
21038;SDS011;10678;51.002;4.786;2022-12-10T12:16:07;43.43;;;16.00;;
21038;SDS011;10678;51.002;4.786;2022-12-10T12:21:15;42.13;;;16.63;;
21038;SDS011;10678;51.002;4.786;2022-12-10T12:26:38;38.23;;;15.17;;
21038;SDS011;10678;51.002;4.786;2022-12-10T12:29:30;41.93;;;16.07;;
21038;SDS011;10678;51.002;4.786;2022-12-10T12:32:05;39.00;;;15.77;;
21038;SDS011;10678;51.002;4.786;2022-12-10T12:34:51;39.70;;;15.77;;
21038;SDS011;10678;51.002;4.786;2022-12-10T12:37:25;44.83;;;17.77;;
21038;SDS011;10678;51.002;4.786;2022-12-10T12:39:59;42.13;;;17.27;;
21038;SDS011;10678;51.002;4.786;2022-12-10T12:45:22;43.20;;;16.70;;
21038;SDS011;10678;51.002;4.786;2022-12-10T12:53:14;39.53;;;16.17;;
21038;SDS011;10678;51.002;4.786;2022-12-10T12:55:46;43.10;;;16.90;;
21038;SDS011;10678;51.002;4.786;2022-12-10T13:01:03;41.50;;;16.63;;
21038;SDS011;10678;51.002;4.786;2022-12-10T13:03:40;38.03;;;15.20;;
21038;SDS011;10678;51.002;4.786;2022-12-10T13:06:12;40.77;;;17.57;;
21038;SDS011;10678;51.002;4.786;2022-12-10T13:08:44;45.63;;;17.97;;
21038;SDS011;10678;51.002;4.786;2022-12-10T13:11:16;42.20;;;15.70;;
21038;SDS011;10678;51.002;4.786;2022-12-10T13:17:02;40.37;;;16.60;;
21038;SDS011;10678;51.002;4.786;2022-12-10T13:19:49;44.00;;;18.57;;
21038;SDS011;10678;51.002;4.786;2022-12-10T13:26:17;45.03;;;17.33;;
21038;SDS011;10678;51.002;4.786;2022-12-10T13:28:28;43.80;;;17.07;;
21038;SDS011;10678;51.002;4.786;2022-12-10T13:31:16;46.27;;;18.53;;
21038;SDS011;10678;51.002;4.786;2022-12-10T13:36:35;45.10;;;17.60;;
21038;SDS011;10678;51.002;4.786;2022-12-10T13:41:28;46.37;;;18.37;;
21038;SDS011;10678;51.002;4.786;2022-12-10T13:50:20;47.80;;;17.67;;
21038;SDS011;10678;51.002;4.786;2022-12-10T14:08:52;54.27;;;19.40;;
21038;SDS011;10678;51.002;4.786;2022-12-10T14:11:26;51.47;;;19.33;;
21038;SDS011;10678;51.002;4.786;2022-12-10T14:13:56;48.43;;;16.87;;
21038;SDS011;10678;51.002;4.786;2022-12-10T14:16:26;54.47;;;18.50;;
21038;SDS011;10678;51.002;4.786;2022-12-10T14:18:57;47.90;;;19.27;;
21038;SDS011;10678;51.002;4.786;2022-12-10T14:21:35;52.93;;;17.90;;
21038;SDS011;10678;51.002;4.786;2022-12-10T14:24:04;44.67;;;19.17;;
21038;SDS011;10678;51.002;4.786;2022-12-10T14:26:31;48.87;;;19.17;;
21038;SDS011;10678;51.002;4.786;2022-12-10T14:29:02;47.63;;;18.03;;
21038;SDS011;10678;51.002;4.786;2022-12-10T14:31:44;43.63;;;18.23;;
21038;SDS011;10678;51.002;4.786;2022-12-10T14:34:16;45.43;;;18.87;;
21038;SDS011;10678;51.002;4.786;2022-12-10T14:36:50;44.83;;;18.17;;
21038;SDS011;10678;51.002;4.786;2022-12-10T14:39:26;43.40;;;18.77;;
21038;SDS011;10678;51.002;4.786;2022-12-10T14:41:55;46.83;;;19.17;;
21038;SDS011;10678;51.002;4.786;2022-12-10T14:44:23;49.10;;;19.83;;
21038;SDS011;10678;51.002;4.786;2022-12-10T14:46:50;43.97;;;17.90;;
21038;SDS011;10678;51.002;4.786;2022-12-10T14:49:20;53.00;;;17.67;;
21038;SDS011;10678;51.002;4.786;2022-12-10T14:51:48;45.70;;;17.67;;
21038;SDS011;10678;51.002;4.786;2022-12-10T14:54:33;42.47;;;17.67;;
21038;SDS011;10678;51.002;4.786;2022-12-10T14:57:01;38.10;;;15.97;;
21038;SDS011;10678;51.002;4.786;2022-12-10T15:02:24;44.80;;;17.50;;
21038;SDS011;10678;51.002;4.786;2022-12-10T15:04:54;42.67;;;18.53;;
21038;SDS011;10678;51.002;4.786;2022-12-10T15:07:25;45.60;;;17.40;;
21038;SDS011;10678;51.002;4.786;2022-12-10T15:09:57;46.33;;;18.27;;
21038;SDS011;10678;51.002;4.786;2022-12-10T15:15:30;46.50;;;16.97;;
21038;SDS011;10678;51.002;4.786;2022-12-10T15:18:21;40.23;;;15.53;;
21038;SDS011;10678;51.002;4.786;2022-12-10T15:20:51;47.23;;;17.30;;
21038;SDS011;10678;51.002;4.786;2022-12-10T15:28:22;46.43;;;16.50;;
21038;SDS011;10678;51.002;4.786;2022-12-10T15:30:50;43.27;;;17.77;;
21038;SDS011;10678;51.002;4.786;2022-12-10T15:33:34;50.47;;;17.83;;
21038;SDS011;10678;51.002;4.786;2022-12-10T15:36:04;40.70;;;16.00;;
21038;SDS011;10678;51.002;4.786;2022-12-10T15:38:30;45.07;;;17.37;;
21038;SDS011;10678;51.002;4.786;2022-12-10T15:41:10;51.47;;;19.07;;
21038;SDS011;10678;51.002;4.786;2022-12-10T15:44:06;43.03;;;16.63;;
21038;SDS011;10678;51.002;4.786;2022-12-10T15:46:48;45.50;;;16.50;;
21038;SDS011;10678;51.002;4.786;2022-12-10T15:49:22;47.33;;;19.20;;
21038;SDS011;10678;51.002;4.786;2022-12-10T15:51:48;48.23;;;18.63;;
21038;SDS011;10678;51.002;4.786;2022-12-10T15:54:49;46.27;;;16.47;;
21038;SDS011;10678;51.002;4.786;2022-12-10T15:59:54;39.87;;;16.70;;
21038;SDS011;10678;51.002;4.786;2022-12-10T16:07:51;43.93;;;18.40;;
21038;SDS011;10678;51.002;4.786;2022-12-10T16:10:19;51.63;;;18.17;;
21038;SDS011;10678;51.002;4.786;2022-12-10T16:12:48;53.17;;;19.97;;
21038;SDS011;10678;51.002;4.786;2022-12-10T16:15:18;41.00;;;18.33;;
21038;SDS011;10678;51.002;4.786;2022-12-10T16:17:49;50.77;;;18.63;;
21038;SDS011;10678;51.002;4.786;2022-12-10T16:20:20;46.33;;;18.23;;
21038;SDS011;10678;51.002;4.786;2022-12-10T16:22:50;50.20;;;17.80;;
21038;SDS011;10678;51.002;4.786;2022-12-10T16:25:15;51.40;;;17.63;;
21038;SDS011;10678;51.002;4.786;2022-12-10T16:27:41;42.30;;;16.30;;
21038;SDS011;10678;51.002;4.786;2022-12-10T16:32:58;43.67;;;16.73;;
21038;SDS011;10678;51.002;4.786;2022-12-10T16:35:23;45.67;;;19.07;;
21038;SDS011;10678;51.002;4.786;2022-12-10T16:37:49;45.33;;;17.53;;
21038;SDS011;10678;51.002;4.786;2022-12-10T16:40:19;59.33;;;20.83;;
21038;SDS011;10678;51.002;4.786;2022-12-10T16:42:47;44.40;;;18.03;;
21038;SDS011;10678;51.002;4.786;2022-12-10T16:45:17;42.83;;;16.40;;
21038;SDS011;10678;51.002;4.786;2022-12-10T16:47:45;43.93;;;17.40;;
21038;SDS011;10678;51.002;4.786;2022-12-10T16:50:11;40.43;;;15.90;;